Ravena, NY

7:46 AM EDT on August 26, 2016 (GMT -0400)
Callanan's Corners | | Change Station

Elev 387 ft 42.53 °N, 73.89 °W | Updated 22 seconds ago

Mostly Cloudy
Mostly Cloudy
71.5 °F
Feels Like 71.5 °F
N
0.0
Wind Variable Wind from SW
Gusts 0.0 mph

Today
High -- | Low -- °F
--% Chance of Precip.
Yesterday
High -- | Low -- °F
Precip. -- in
Pressure 29.96 in
Visibility 3.0 miles
Clouds Scattered Clouds 500 ft
Mostly Cloudy 6500 ft
Mostly Cloudy 14000 ft
Dew Point 71 °F
Humidity 99%
Rainfall 0.03 in
Snow Depth Not available.
6:14 AM 7:38 PM
Waning Crescent, 35% visible
SPECI KALB 261127Z 21005KT 3SM BR SCT005 BKN065 BKN140 22/22 A2996 RMK AO2 T02220217
Pressure 29.96 in
Visibility 3.0 miles
Clouds Scattered Clouds 500 ft
Mostly Cloudy 6500 ft
Mostly Cloudy 14000 ft
Dew Point 71 °F
Humidity 99%
Rainfall 0.03 in
Snow Depth Not available.
6:14 AM 7:38 PM
Waning Crescent, 35% visible
SPECI KALB 261127Z 21005KT 3SM BR SCT005 BKN065 BKN140 22/22 A2996 RMK AO2 T02220217

10-Day Weather Forecast

Almanac

Astronomy

Aug. 26, 2016 Rise Set
Actual Time
Civil Twilight
Nautical Twilight
Astronomical Twilight
Moon
Length of Visible Light
Length of Day
Tomorrow will be .
, % of the Moon is Illuminated

Today's Extremes

State Highs State Lows

Community

WunderPhotos

Upload Photos

1,935,071 photos uploaded!

WunderBlog® & News

Nearby

Air Quality

  Air Quality AQ Index Pollutant
Not available.

Snow Depth

Station Depth Elevation

Earthquake Activity

City Distance Mag. Time & Date
Minimum magnitude displayed is 2.5.

Coastal Water Temperatures

Place Temperature

Stations

Nearby Weather Stations

Station Location Temp. Windchill Dew Point Humidity Wind Precip. Elev Updated Type
                   

Watches & Warnings

There are currently no watches in effect.